Louisville, KY (40223)

12:13 AM EDT op 25 oktober 2014 (GMT -0400)
Owl Creek Country Club | Change Station
CLOSE
Current Station
Persoonlijk weerstation
Location: Anchorage, KY
Geometrische hoogte: 730 ft
Nabije weerstations

Hoogte 730 ft 38.28 °N, 85.53 °W | Updated 1 minute ago

Helder
Helder
45.7 °F
Voelt als 46 °F
N
0.0
Wind Variabel Wind van WNW
Gusts 0.0 mijl/u

Vandaag
Hoog -- | Laag -- °F
--% Kans op neerslag
Gisteren
Hoog -- | Laag -- °F
Precip. -- inches
8:00 AM 6:50 PM
Nieuwe maan, 2% visible
Druk 30.07 inches
Zicht 7.0 mijlen
Wolken Helder
Gevoelstemperatuur 46 °F
Dauwpunt 45 °F
Vochtigheid 96%
Neerslag 0.00 inches
Dikte sneeuw Niet beschikbaar.
UV 0 van de 12
Pollen 1.10 van de 12
Ozon Goed
PM2.5 Ongezond voor gevoelige groepen
Flu Activity Sporadic
METAR KLOU 250353Z AUTO 00000KT 7SM CLR 10/08 A3007 RMK AO2 SLP182 T01000083

More Conditions Fewer Conditions

Druk 30.07 inches
Zicht 7.0 mijlen
Wolken Helder
Gevoelstemperatuur 46 °F
Dauwpunt 45 °F
Vochtigheid 96%
Neerslag 0.00 inches
Dikte sneeuw Niet beschikbaar.
UV 0 van de 12
Pollen 1.10 van de 12
Ozon Goed
PM2.5 Ongezond voor gevoelige groepen
Flu Activity Sporadic
METAR KLOU 250353Z AUTO 00000KT 7SM CLR 10/08 A3007 RMK AO2 SLP182 T01000083

More Conditions Fewer Conditions

10-Day Weather Forecast

Almanac

Astronomie

Oct. 25, 2014 Opkomst Ondergang
Werkelijke tijd 8:00 AM EDT 6:50 PM EDT
Burgerlijke schemering 7:33 AM EDT 7:17 PM EDT
Nautische schemering 7:02 AM EDT 7:48 PM EDT
Astronomische schemering 6:32 AM EDT 8:19 PM EDT
Maan 9:37 AM EDT 8:14 PM EDT
Golflengte van het zichtbare licht 11h 43m
Daglengte
10h 49m
Tomorrow will be 2m 16s shorter.
Nieuwe maan, 2% of the Moon is Illuminated
Vandaag
Nieuwe maan
oktober 30
Eerste kwartier
nov 6
Volle maan
nov 14
Laatste kwartier
nov 22
Nieuw

Extremen gisteren

State Highs State Lows

Community

WunderPhotos

Upload Photos

1,764,779 foto’s ge-upload!

Nearby

Luchtkwaliteit

  Luchtkwaliteit LK-index Verontreinigende stof
Gisteren Goed
PM10
Gisteren Goed
OZONE
Actueel Ongezond voor gevoelige groepen
PM2.5
Actueel Goed
OZONE
vrijdag Matig
PM2.5
vrijdag Goed
OZONE
zaterdag Matig
PM2.5
zaterdag Goed
OZONE
zondag Matig
PM2.5
zondag Goed
OZONE
maandag Matig
PM2.5
maandag Goed
OZONE

Dikte sneeuw

Station Depth Geometrische hoogte
Er is geen verse sneeuw gerapporteerd.

Aardbevingen

Stad Distance Mag. Time & Date
No recent earthquake activity has been reported nearby.
Minimum magnitude displayed is 2.5.

Watertemperatuur langs de kust

Plaats Temperatuur
Geen meldingen van stations

Nabije weerstations